createdAt,value
2019-05-14T00:01:26.271Z,7.37
2019-05-14T00:03:58.935Z,7.52
2019-05-14T00:06:31.579Z,7.47
2019-05-14T00:09:04.815Z,7.19
2019-05-14T00:11:37.378Z,6.97
2019-05-14T00:14:11.622Z,7.01
2019-05-14T00:16:44.384Z,7.02
2019-05-14T00:19:17.747Z,7.27
2019-05-14T00:21:51.455Z,7.14
2019-05-14T00:24:24.130Z,7.27
2019-05-14T00:26:56.739Z,7.25
2019-05-14T00:29:29.378Z,7.29
2019-05-14T00:32:02.134Z,7.31
2019-05-14T00:34:34.757Z,7.23
2019-05-14T00:37:07.411Z,7.26
2019-05-14T00:39:41.608Z,7.30
2019-05-14T00:42:14.087Z,7.29
2019-05-14T00:44:54.463Z,7.17
2019-05-14T00:47:21.675Z,7.05
2019-05-14T00:49:54.574Z,7.13
2019-05-14T00:52:27.121Z,6.92
2019-05-14T00:55:01.130Z,7.00
2019-05-14T00:57:33.895Z,6.97
2019-05-14T01:00:07.162Z,7.03
2019-05-14T01:02:41.514Z,7.01
2019-05-14T01:05:14.390Z,6.92
2019-05-14T01:07:47.077Z,6.85
2019-05-14T01:10:21.994Z,6.83
2019-05-14T01:12:54.235Z,6.87
2019-05-14T01:15:26.866Z,6.92
2019-05-14T01:18:01.938Z,6.90
2019-05-14T01:20:33.965Z,6.91
2019-05-14T01:23:06.586Z,6.75
2019-05-14T01:25:39.163Z,6.73
2019-05-14T01:28:11.832Z,6.58
2019-05-14T01:30:44.423Z,6.45
2019-05-14T01:33:17.048Z,6.61
2019-05-14T01:35:51.450Z,6.49
2019-05-14T01:38:24.080Z,6.48
2019-05-14T01:40:56.741Z,6.37
2019-05-14T01:43:31.464Z,6.38
2019-05-14T01:46:04.000Z,6.38
2019-05-14T01:48:36.671Z,6.16
2019-05-14T01:51:11.738Z,6.21
2019-05-14T01:53:43.825Z,6.07
2019-05-14T01:56:16.415Z,6.00
2019-05-14T01:58:52.393Z,6.03
2019-05-14T02:01:25.064Z,5.86
2019-05-14T02:03:57.613Z,6.06
2019-05-14T02:06:31.800Z,5.92
2019-05-14T02:09:05.663Z,5.65
2019-05-14T02:11:38.311Z,5.63
2019-05-14T02:14:11.637Z,5.51
2019-05-14T02:16:44.369Z,5.38
2019-05-14T02:19:17.011Z,5.55
2019-05-14T02:21:51.474Z,5.59
2019-05-14T02:24:23.994Z,5.86
2019-05-14T02:26:56.616Z,6.05
2019-05-14T02:29:29.247Z,5.99
2019-05-14T02:32:01.899Z,5.74
2019-05-14T02:34:34.534Z,5.84
2019-05-14T02:37:09.260Z,5.84
2019-05-14T02:39:41.642Z,5.80
2019-05-14T02:42:14.289Z,5.90
2019-05-14T02:44:48.755Z,5.91
2019-05-14T02:47:20.403Z,6.02
2019-05-14T02:49:53.104Z,5.79
2019-05-14T02:52:25.695Z,5.60
2019-05-14T02:54:59.733Z,5.71
2019-05-14T02:57:39.411Z,5.62
2019-05-14T03:00:12.920Z,5.56
2019-05-14T03:02:45.569Z,5.38
2019-05-14T03:05:19.217Z,5.38
2019-05-14T03:07:52.110Z,5.69
2019-05-14T03:10:24.822Z,5.61
2019-05-14T03:12:59.078Z,5.44
2019-05-14T03:15:31.899Z,5.20
2019-05-14T03:18:04.505Z,5.34
2019-05-14T03:20:39.038Z,5.12
2019-05-14T03:23:18.032Z,4.88
2019-05-14T03:25:49.122Z,5.00
2019-05-14T03:28:20.398Z,4.95
2019-05-14T03:30:53.501Z,4.92
2019-05-14T03:33:32.327Z,4.66
2019-05-14T03:36:08.411Z,4.61
2019-05-14T03:38:35.125Z,4.64
2019-05-14T03:41:09.786Z,4.66
2019-05-14T03:43:42.162Z,4.60
2019-05-14T03:46:15.077Z,4.98
2019-05-14T03:48:49.277Z,4.82
2019-05-14T03:51:22.102Z,4.85
2019-05-14T03:54:01.972Z,5.05
2019-05-14T03:56:29.881Z,4.80
2019-05-14T03:59:02.967Z,4.83
2019-05-14T04:01:39.698Z,4.91
2019-05-14T04:04:11.189Z,5.11
2019-05-14T04:06:49.354Z,5.11
2019-05-14T04:09:23.245Z,5.09
2019-05-14T04:11:59.570Z,5.22
2019-05-14T04:14:34.757Z,5.34
2019-05-14T04:17:15.180Z,5.36
2019-05-14T04:19:49.536Z,5.37
2019-05-14T04:22:24.791Z,5.49
2019-05-14T04:25:00.156Z,5.27
2019-05-14T04:27:35.682Z,5.17
2019-05-14T04:30:10.383Z,5.39
2019-05-14T04:32:43.888Z,5.50
2019-05-14T04:35:16.073Z,5.63
2019-05-14T04:37:49.686Z,5.66
2019-05-14T04:40:22.451Z,5.48
2019-05-14T04:42:55.199Z,5.45
2019-05-14T04:45:29.659Z,5.37
2019-05-14T04:48:02.075Z,5.32
2019-05-14T04:50:34.651Z,5.41
2019-05-14T04:53:09.057Z,5.44
2019-05-14T04:55:41.703Z,5.33
2019-05-14T04:58:14.474Z,5.31
2019-05-14T05:00:49.934Z,5.62
2019-05-14T05:03:21.517Z,5.54
2019-05-14T05:05:54.128Z,5.50
2019-05-14T05:08:30.036Z,5.61
2019-05-14T05:11:01.246Z,5.76
2019-05-14T05:13:33.925Z,5.96
2019-05-14T05:16:09.628Z,5.89
2019-05-14T05:18:40.855Z,6.10
2019-05-14T05:21:13.578Z,6.10
2019-05-14T05:23:46.330Z,6.16
2019-05-14T05:26:19.035Z,6.26
2019-05-14T05:29:03.595Z,6.26
2019-05-14T05:31:25.969Z,6.22
2019-05-14T05:33:58.542Z,6.30
2019-05-14T05:36:31.172Z,6.46
2019-05-14T05:39:04.428Z,6.57
2019-05-14T05:41:38.466Z,6.59
2019-05-14T05:44:11.267Z,6.67
2019-05-14T05:46:43.910Z,6.76
2019-05-14T05:49:18.705Z,6.84
2019-05-14T05:51:50.884Z,6.98
2019-05-14T05:54:23.504Z,7.01
2019-05-14T05:56:58.153Z,7.16
2019-05-14T05:59:30.456Z,7.10
2019-05-14T06:02:03.467Z,7.26
2019-05-14T06:04:36.104Z,7.55
2019-05-14T06:07:09.010Z,7.70
2019-05-14T06:09:41.682Z,7.76
2019-05-14T06:12:15.334Z,7.91
2019-05-14T06:14:48.699Z,7.80
2019-05-14T06:17:21.627Z,7.73
2019-05-14T06:19:55.329Z,7.92
2019-05-14T06:22:28.125Z,7.98
2019-05-14T06:25:00.768Z,8.37
2019-05-14T06:27:33.525Z,8.39
2019-05-14T06:30:09.085Z,8.53
2019-05-14T06:32:41.800Z,8.69
2019-05-14T06:35:14.189Z,8.66
2019-05-14T06:37:48.816Z,8.88
2019-05-14T06:40:21.093Z,8.95
2019-05-14T06:42:53.716Z,8.92
2019-05-14T06:45:29.050Z,8.76
2019-05-14T06:48:00.679Z,8.82
2019-05-14T06:50:33.336Z,9.08
2019-05-14T06:53:08.379Z,8.76
2019-05-14T06:55:40.266Z,8.67
2019-05-14T06:58:13.093Z,9.07
2019-05-14T07:00:45.697Z,9.28
2019-05-14T07:03:18.419Z,9.34
2019-05-14T07:05:51.142Z,9.63
2019-05-14T07:08:23.810Z,9.85
2019-05-14T07:10:59.024Z,9.99
2019-05-14T07:13:31.109Z,10.24
2019-05-14T07:16:03.836Z,10.23
2019-05-14T07:18:46.386Z,10.38
2019-05-14T07:21:11.041Z,10.52
2019-05-14T07:23:43.774Z,10.62
2019-05-14T07:26:19.019Z,10.86
2019-05-14T07:28:50.961Z,11.36
2019-05-14T07:31:23.760Z,11.55
2019-05-14T07:33:58.279Z,11.62
2019-05-14T07:36:31.112Z,11.59
2019-05-14T07:39:04.916Z,12.19
2019-05-14T07:41:39.054Z,12.78
2019-05-14T07:44:11.985Z,13.54
2019-05-14T07:46:44.745Z,13.27
2019-05-14T07:49:18.491Z,13.34
2019-05-14T07:51:51.247Z,13.27
2019-05-14T07:54:24.153Z,13.68
2019-05-14T07:56:58.952Z,13.24
2019-05-14T07:59:31.411Z,13.71
2019-05-14T08:02:04.100Z,13.76
2019-05-14T08:04:38.082Z,13.82
2019-05-14T08:07:11.057Z,13.55
2019-05-14T08:09:43.809Z,13.78
2019-05-14T08:12:19.190Z,14.24
2019-05-14T08:15:11.063Z,13.96
2019-05-14T08:17:27.978Z,13.89
2019-05-14T08:19:59.910Z,14.05
2019-05-14T08:22:32.643Z,13.99
2019-05-14T08:25:05.871Z,14.30
2019-05-14T08:27:39.780Z,14.61
2019-05-14T08:30:14.474Z,14.83
2019-05-14T08:32:48.994Z,15.07
2019-05-14T08:35:22.099Z,14.51
2019-05-14T08:38:05.558Z,14.44
2019-05-14T08:40:29.171Z,14.81
2019-05-14T08:43:01.935Z,15.34
2019-05-14T08:45:34.735Z,15.80
2019-05-14T08:48:09.230Z,15.68
2019-05-14T08:50:42.090Z,16.71
2019-05-14T08:53:14.925Z,15.74
2019-05-14T08:55:48.801Z,16.15
2019-05-14T08:58:21.877Z,15.99
2019-05-14T09:00:54.636Z,16.66
2019-05-14T09:03:28.763Z,16.13
2019-05-14T09:06:01.629Z,15.72
2019-05-14T09:08:34.427Z,15.43
2019-05-14T09:11:09.758Z,15.84
2019-05-14T09:13:41.581Z,15.85
2019-05-14T09:16:14.432Z,16.91
2019-05-14T09:18:49.095Z,16.54
2019-05-14T09:21:21.643Z,17.54
2019-05-14T09:23:54.409Z,16.86
2019-05-14T09:26:28.492Z,17.04
2019-05-14T09:29:17.004Z,16.84
2019-05-14T09:31:35.654Z,17.28
2019-05-14T09:34:09.202Z,16.79
2019-05-14T09:36:42.106Z,15.92
2019-05-14T09:39:14.846Z,16.13
2019-05-14T09:41:48.254Z,16.93
2019-05-14T09:44:21.050Z,17.49
2019-05-14T09:46:53.700Z,16.43
2019-05-14T09:49:28.260Z,15.24
2019-05-14T09:52:00.900Z,16.37
2019-05-14T09:54:33.688Z,16.98
2019-05-14T09:57:08.334Z,17.16
2019-05-14T09:59:40.959Z,17.51
2019-05-14T10:02:13.900Z,17.08
2019-05-14T10:04:48.736Z,16.29
2019-05-14T10:07:20.224Z,16.54
2019-05-14T10:09:52.953Z,15.77
2019-05-14T10:12:25.666Z,16.71
2019-05-14T10:14:59.241Z,17.74
2019-05-14T10:17:32.076Z,18.00
2019-05-14T10:20:05.093Z,17.43
2019-05-14T10:22:39.772Z,16.72
2019-05-14T10:25:12.331Z,17.34
2019-05-14T10:27:45.028Z,16.81
2019-05-14T10:30:18.299Z,17.26
2019-05-14T10:32:51.057Z,16.10
2019-05-14T10:35:23.707Z,15.84
2019-05-14T10:37:59.659Z,16.46
2019-05-14T10:40:30.825Z,15.80
2019-05-14T10:43:03.538Z,16.30
2019-05-14T10:45:38.390Z,16.44
2019-05-14T10:48:10.745Z,16.60
2019-05-14T10:50:56.394Z,16.24
2019-05-14T10:53:20.341Z,16.35
2019-05-14T10:55:52.658Z,16.79
2019-05-14T10:58:25.538Z,16.83
2019-05-14T11:00:59.076Z,17.08
2019-05-14T11:03:31.802Z,17.21
2019-05-14T11:06:04.539Z,17.24
2019-05-14T11:08:38.697Z,17.35
2019-05-14T11:11:11.581Z,16.92
2019-05-14T11:13:44.451Z,16.38
2019-05-14T11:16:19.005Z,16.75
2019-05-14T11:18:51.791Z,16.64
2019-05-14T11:21:26.809Z,16.43
2019-05-14T11:23:58.956Z,15.88
2019-05-14T11:26:31.690Z,15.73
2019-05-14T11:29:04.435Z,16.31
2019-05-14T11:31:39.101Z,16.15
2019-05-14T11:34:11.708Z,15.91
2019-05-14T11:36:44.514Z,15.83
2019-05-14T11:39:18.082Z,15.96
2019-05-14T11:41:50.864Z,16.02
2019-05-14T11:44:23.617Z,15.85
2019-05-14T11:46:58.110Z,15.26
2019-05-14T11:49:30.865Z,15.41
2019-05-14T11:52:07.881Z,15.60
2019-05-14T11:54:41.051Z,16.06
2019-05-14T11:57:12.589Z,16.35
2019-05-14T11:59:45.252Z,16.26
2019-05-14T12:02:18.827Z,16.52
2019-05-14T12:04:51.851Z,17.01
2019-05-14T12:07:24.635Z,16.91
2019-05-14T12:09:57.386Z,15.24
2019-05-14T12:12:30.106Z,15.64
2019-05-14T12:15:02.871Z,15.44
2019-05-14T12:17:35.597Z,15.62
2019-05-14T12:20:09.500Z,16.18
2019-05-14T12:22:42.225Z,16.52
2019-05-14T12:25:15.490Z,16.57
2019-05-14T12:27:49.530Z,16.89
2019-05-14T12:30:22.890Z,18.04
2019-05-14T12:32:55.728Z,17.96
2019-05-14T12:35:29.200Z,17.01
2019-05-14T12:38:02.167Z,16.65
2019-05-14T12:40:34.880Z,16.90
2019-05-14T12:43:09.630Z,17.69
2019-05-14T12:45:42.134Z,18.06
2019-05-14T12:48:14.899Z,18.22
2019-05-14T12:50:48.852Z,19.26
2019-05-14T12:53:22.064Z,18.45
2019-05-14T12:55:54.904Z,17.24
2019-05-14T12:58:28.531Z,17.43
2019-05-14T13:01:01.480Z,17.61
2019-05-14T13:03:34.373Z,18.08
2019-05-14T13:06:10.037Z,17.93
2019-05-14T13:08:41.537Z,17.97
2019-05-14T13:11:14.301Z,18.67
2019-05-14T13:13:49.033Z,18.71
2019-05-14T13:16:21.451Z,19.32
2019-05-14T13:18:54.329Z,18.67
2019-05-14T13:21:28.950Z,19.25
2019-05-14T13:24:01.491Z,18.82
2019-05-14T13:26:34.269Z,19.41
2019-05-14T13:29:10.093Z,17.30
2019-05-14T13:31:41.443Z,18.06
2019-05-14T13:34:14.134Z,18.56
2019-05-14T13:36:48.850Z,18.70
2019-05-14T13:39:21.232Z,18.07
2019-05-14T13:41:53.951Z,18.67
2019-05-14T13:44:28.966Z,18.47
2019-05-14T13:47:01.102Z,18.48
2019-05-14T13:49:33.811Z,18.21
2019-05-14T13:52:09.325Z,18.91
2019-05-14T13:54:41.381Z,18.81
2019-05-14T13:57:14.175Z,18.53
2019-05-14T13:59:49.345Z,18.03
2019-05-14T14:02:21.377Z,17.66
2019-05-14T14:04:54.161Z,18.17
2019-05-14T14:07:26.994Z,18.34
2019-05-14T14:09:59.793Z,18.09
2019-05-14T14:12:32.643Z,18.01
2019-05-14T14:15:09.176Z,18.79
2019-05-14T14:17:40.648Z,19.14
2019-05-14T14:20:14.097Z,19.36
2019-05-14T14:22:49.056Z,18.51
2019-05-14T14:25:21.376Z,18.83
2019-05-14T14:27:54.185Z,19.14
2019-05-14T14:30:28.553Z,17.86
2019-05-14T14:33:01.311Z,18.24
2019-05-14T14:35:34.251Z,18.25
2019-05-14T14:38:08.725Z,18.83
2019-05-14T14:40:41.756Z,19.56
2019-05-14T14:43:14.621Z,19.45
2019-05-14T14:45:50.538Z,18.55
2019-05-14T14:48:21.029Z,18.75
2019-05-14T14:50:53.845Z,18.40
2019-05-14T14:53:42.813Z,18.33
2019-05-14T14:56:01.100Z,18.25
2019-05-14T14:58:33.879Z,18.93
2019-05-14T15:01:08.782Z,17.10
2019-05-14T15:03:41.070Z,17.97
2019-05-14T15:06:13.768Z,17.62
2019-05-14T15:08:49.374Z,18.19
2019-05-14T15:11:20.940Z,19.05
2019-05-14T15:13:53.733Z,18.58
2019-05-14T15:16:29.114Z,18.96
2019-05-14T15:19:00.897Z,19.21
2019-05-14T15:21:33.758Z,18.75
2019-05-14T15:24:14.231Z,17.85
2019-05-14T15:26:41.013Z,18.49
2019-05-14T15:29:13.719Z,18.00
2019-05-14T15:31:48.552Z,18.76
2019-05-14T15:34:20.785Z,18.59
2019-05-14T15:36:53.614Z,17.63
2019-05-14T15:39:26.402Z,18.30
2019-05-14T15:42:05.394Z,18.27
2019-05-14T15:44:47.286Z,17.52
2019-05-14T15:47:11.602Z,16.95
2019-05-14T15:49:42.573Z,17.82
2019-05-14T15:52:15.418Z,18.04
2019-05-14T15:54:50.439Z,16.82
2019-05-14T15:57:22.520Z,16.84
2019-05-14T15:59:55.240Z,16.31
2019-05-14T16:02:29.681Z,15.29
2019-05-14T16:05:02.696Z,15.28
2019-05-14T16:07:35.520Z,16.34
2019-05-14T16:10:08.789Z,17.31
2019-05-14T16:12:44.495Z,16.95
2019-05-14T16:15:18.821Z,16.24
2019-05-14T16:18:05.730Z,15.68
2019-05-14T16:20:26.214Z,15.27
2019-05-14T16:23:00.546Z,16.08
2019-05-14T16:25:33.336Z,15.84
2019-05-14T16:28:08.557Z,16.09
2019-05-14T16:30:40.422Z,15.76
2019-05-14T16:33:13.157Z,15.44
2019-05-14T16:35:45.885Z,15.18
2019-05-14T16:38:18.667Z,14.91
2019-05-14T16:40:51.357Z,14.87
2019-05-14T16:43:24.135Z,14.74
2019-05-14T16:45:59.585Z,14.65
2019-05-14T16:48:31.309Z,13.74
2019-05-14T16:51:03.990Z,13.32
2019-05-14T16:53:38.008Z,13.01
2019-05-14T16:56:10.770Z,12.96
2019-05-14T16:58:43.487Z,12.56
2019-05-14T17:01:19.258Z,12.49
2019-05-14T17:03:51.242Z,12.37
2019-05-14T17:06:23.946Z,12.38
2019-05-14T17:08:59.305Z,12.33
2019-05-14T17:11:31.188Z,12.21
2019-05-14T17:14:03.862Z,12.05
2019-05-14T17:16:36.562Z,11.99
2019-05-14T17:19:09.417Z,11.69
2019-05-14T17:21:42.722Z,11.60
2019-05-14T17:24:15.621Z,11.76
2019-05-14T17:26:48.843Z,11.60
2019-05-14T17:29:21.856Z,11.50
2019-05-14T17:31:54.564Z,11.49
2019-05-14T17:34:29.248Z,11.24
2019-05-14T17:37:01.784Z,11.16
2019-05-14T17:39:34.506Z,11.28
2019-05-14T17:42:11.362Z,11.12
2019-05-14T17:44:42.029Z,10.97
2019-05-14T17:47:14.683Z,10.77
2019-05-14T17:49:48.516Z,10.59
2019-05-14T17:52:22.063Z,10.48
2019-05-14T17:54:54.810Z,10.32
2019-05-14T17:57:34.262Z,10.17
2019-05-14T18:00:02.135Z,10.17
2019-05-14T18:02:34.889Z,10.16
2019-05-14T18:05:09.488Z,10.10
2019-05-14T18:07:42.567Z,9.90
2019-05-14T18:10:15.638Z,9.92
2019-05-14T18:12:48.535Z,10.01
2019-05-14T18:15:21.259Z,10.02
2019-05-14T18:17:53.951Z,9.83
2019-05-14T18:20:28.615Z,9.47
2019-05-14T18:23:01.170Z,9.53
2019-05-14T18:25:33.872Z,9.78
2019-05-14T18:28:09.703Z,9.45
2019-05-14T18:30:42.396Z,9.30
2019-05-14T18:33:15.127Z,9.18
2019-05-14T18:35:50.603Z,9.10
2019-05-14T18:38:22.224Z,9.14
2019-05-14T18:40:55.685Z,9.10
2019-05-14T18:43:29.045Z,9.03
2019-05-14T18:46:01.828Z,8.64
2019-05-14T18:48:34.812Z,9.11
2019-05-14T18:51:08.941Z,8.85
2019-05-14T18:53:41.856Z,8.71
2019-05-14T18:56:20.317Z,8.59
2019-05-14T18:58:49.179Z,8.42
2019-05-14T19:01:21.864Z,8.33
2019-05-14T19:03:54.475Z,8.17
2019-05-14T19:06:28.326Z,8.48
2019-05-14T19:09:01.567Z,8.44
2019-05-14T19:11:34.366Z,8.57
2019-05-14T19:14:08.995Z,8.34
2019-05-14T19:16:40.991Z,8.17
2019-05-14T19:19:13.567Z,8.44
2019-05-14T19:21:50.942Z,8.72
2019-05-14T19:24:23.637Z,8.44
2019-05-14T19:26:56.340Z,8.04
2019-05-14T19:29:29.535Z,7.96
2019-05-14T19:32:02.265Z,8.33
2019-05-14T19:34:34.948Z,8.10
2019-05-14T19:37:08.298Z,8.20
2019-05-14T19:39:40.326Z,8.49
2019-05-14T19:42:13.138Z,8.33
2019-05-14T19:44:48.124Z,7.87
2019-05-14T19:47:20.062Z,7.92
2019-05-14T19:49:52.646Z,7.97
2019-05-14T19:52:25.305Z,7.73
2019-05-14T19:54:58.100Z,7.72
2019-05-14T19:57:30.818Z,7.82
2019-05-14T20:00:03.588Z,7.54
2019-05-14T20:02:36.244Z,7.30
2019-05-14T20:05:09.418Z,7.16
2019-05-14T20:07:42.200Z,7.05
2019-05-14T20:10:15.276Z,6.98
2019-05-14T20:12:48.260Z,6.86
2019-05-14T20:15:21.385Z,6.73
2019-05-14T20:17:54.226Z,6.90
2019-05-14T20:20:28.815Z,7.02
2019-05-14T20:23:01.359Z,7.01
2019-05-14T20:25:34.127Z,6.87
2019-05-14T20:28:08.122Z,6.97
2019-05-14T20:30:40.903Z,7.23
2019-05-14T20:33:13.640Z,7.21
2019-05-14T20:35:48.471Z,7.64
2019-05-14T20:38:20.749Z,7.94
2019-05-14T20:40:53.334Z,8.09
2019-05-14T20:43:26.123Z,8.25
2019-05-14T20:45:59.485Z,8.28
2019-05-14T20:48:32.177Z,8.33
2019-05-14T20:51:04.829Z,8.24
2019-05-14T20:53:39.674Z,8.17
2019-05-14T20:56:12.079Z,8.22
2019-05-14T20:58:44.867Z,8.27
2019-05-14T21:01:18.370Z,8.32
2019-05-14T21:03:51.268Z,8.51
2019-05-14T21:06:23.430Z,8.61
2019-05-14T21:08:58.300Z,8.56
2019-05-14T21:11:30.603Z,8.45
2019-05-14T21:14:03.178Z,8.46
2019-05-14T21:16:35.925Z,8.38
2019-05-14T21:19:08.680Z,8.16
2019-05-14T21:21:41.323Z,8.00
2019-05-14T21:24:13.876Z,8.11
2019-05-14T21:26:46.578Z,8.23
2019-05-14T21:29:19.334Z,8.07
2019-05-14T21:31:51.959Z,7.77
2019-05-14T21:34:24.606Z,7.75
2019-05-14T21:36:58.524Z,7.63
2019-05-14T21:39:31.250Z,7.39
2019-05-14T21:42:03.786Z,7.33
2019-05-14T21:44:36.401Z,7.24
2019-05-14T21:47:09.167Z,7.27
2019-05-14T21:49:41.741Z,7.24
2019-05-14T21:52:14.371Z,7.24
2019-05-14T21:54:48.060Z,7.20
2019-05-14T21:57:20.359Z,7.29
2019-05-14T21:59:53.376Z,7.23
2019-05-14T22:02:28.264Z,7.31
2019-05-14T22:05:01.536Z,7.41
2019-05-14T22:07:34.668Z,7.34
2019-05-14T22:10:08.746Z,7.16
2019-05-14T22:12:40.629Z,7.10
2019-05-14T22:15:14.141Z,7.06
2019-05-14T22:17:48.982Z,7.20
2019-05-14T22:20:21.231Z,7.09
2019-05-14T22:22:53.976Z,7.00
2019-05-14T22:25:28.443Z,7.10
2019-05-14T22:28:11.163Z,6.96
2019-05-14T22:30:35.535Z,6.67
2019-05-14T22:33:08.733Z,6.72
2019-05-14T22:35:40.727Z,6.60
2019-05-14T22:38:13.518Z,6.41
2019-05-14T22:40:48.250Z,6.11
2019-05-14T22:43:20.630Z,5.91
2019-05-14T22:45:53.342Z,5.78
2019-05-14T22:48:25.199Z,5.41
2019-05-14T22:50:59.266Z,5.86
2019-05-14T22:53:32.077Z,5.86
2019-05-14T22:56:04.829Z,5.46
2019-05-14T22:58:38.246Z,5.26
2019-05-14T23:01:14.764Z,4.99
2019-05-14T23:03:45.554Z,4.96
2019-05-14T23:06:18.877Z,4.68
2019-05-14T23:08:51.573Z,4.77
2019-05-14T23:11:24.335Z,6.00
2019-05-14T23:13:58.215Z,5.64
2019-05-14T23:16:37.300Z,5.35
2019-05-14T23:19:05.210Z,5.17
2019-05-14T23:21:39.124Z,5.27
2019-05-14T23:24:11.888Z,5.73
2019-05-14T23:26:44.476Z,5.48
2019-05-14T23:29:17.116Z,5.36
2019-05-14T23:31:50.156Z,5.07
2019-05-14T23:34:22.867Z,4.83
2019-05-14T23:36:55.860Z,4.53
2019-05-14T23:39:29.333Z,4.36
2019-05-14T23:42:01.955Z,4.29
2019-05-14T23:44:34.610Z,4.01
2019-05-14T23:47:08.286Z,4.00
2019-05-14T23:49:41.031Z,4.17
2019-05-14T23:52:13.787Z,4.52
2019-05-14T23:54:48.070Z,5.40
2019-05-14T23:57:20.757Z,5.40
2019-05-14T23:59:53.334Z,5.43
